Time;durP1;ratioP1;P1;durP2;ratioP2;P2;SDS_P1;SDS_P2;PMS_P1;PMS_P2;Temp;Humidity;BMP_temperature;BMP_pressure;BME280_temperature;BME280_humidity;BME280_pressure;Samples;Min_cycle;Max_cycle;Signal;HPM_P1;HPM_P2
2022/08/09 00:01:13;;;;;;;2.30;2.10;;;19.00;99.90;;;;;;5011930;28;20890;-74
2022/08/09 00:03:39;;;;;;;2.40;2.10;;;19.10;99.90;;;;;;5011338;28;20244;-73
2022/08/09 00:06:04;;;;;;;3.67;3.20;;;19.10;99.90;;;;;;5011281;28;20176;-73
2022/08/09 00:08:30;;;;;;;2.60;2.40;;;19.10;99.90;;;;;;5014369;28;20190;-73
2022/08/09 00:10:56;;;;;;;3.50;2.70;;;19.10;99.90;;;;;;5014897;28;20188;-73
2022/08/09 00:13:21;;;;;;;2.50;2.30;;;19.10;99.90;;;;;;5015074;28;20399;-73
2022/08/09 00:15:47;;;;;;;4.40;2.80;;;19.10;99.90;;;;;;5017319;28;20204;-72
2022/08/09 00:18:13;;;;;;;3.43;2.97;;;19.10;99.90;;;;;;5020838;28;20240;-73
2022/08/09 00:20:39;;;;;;;2.80;2.53;;;19.10;99.90;;;;;;5015774;28;20569;-73
2022/08/09 00:23:05;;;;;;;2.70;2.50;;;19.20;99.90;;;;;;5014870;28;20434;-73
2022/08/09 00:25:30;;;;;;;5.57;3.20;;;19.20;99.90;;;;;;5014566;28;20400;-73
2022/08/09 00:27:56;;;;;;;2.97;2.63;;;19.20;99.90;;;;;;5014876;28;20166;-73
2022/08/09 00:30:21;;;;;;;2.40;2.20;;;19.20;99.90;;;;;;5014738;28;20170;-73
2022/08/09 00:32:47;;;;;;;3.17;2.60;;;19.20;99.90;;;;;;5014856;28;20248;-74
2022/08/09 00:35:12;;;;;;;6.20;2.97;;;19.20;99.90;;;;;;5014172;28;20232;-73
2022/08/09 00:37:38;;;;;;;3.13;2.60;;;19.20;99.90;;;;;;5014776;28;20169;-74
2022/08/09 00:40:04;;;;;;;4.10;2.00;;;19.20;99.90;;;;;;5014653;28;20832;-74
2022/08/09 00:42:30;;;;;;;4.43;2.60;;;19.20;99.90;;;;;;5014767;28;20538;-74
2022/08/09 00:44:56;;;;;;;3.37;2.27;;;19.20;99.90;;;;;;5014285;28;20404;-74
2022/08/09 00:47:22;;;;;;;4.37;2.67;;;19.10;99.90;;;;;;5014061;28;20672;-74
2022/08/09 00:49:47;;;;;;;3.00;2.40;;;19.10;99.90;;;;;;5014328;28;20442;-74
2022/08/09 00:52:13;;;;;;;3.83;2.20;;;19.10;99.90;;;;;;5014518;28;20448;-75
2022/08/09 00:54:39;;;;;;;3.97;2.73;;;19.10;99.90;;;;;;5014590;28;20196;-74
2022/08/09 00:57:05;;;;;;;4.73;2.10;;;19.10;99.90;;;;;;5014325;28;20415;-74
2022/08/09 00:59:31;;;;;;;2.63;2.43;;;19.10;99.90;;;;;;5014394;28;20671;-74
2022/08/09 01:02:00;;;;;;;4.57;3.20;;;19.10;99.90;;;;;;4980604;28;20442;-74
2022/08/09 01:04:40;;;;;;;4.40;3.00;;;19.10;99.90;;;;;;5013988;28;20208;-73
2022/08/09 01:07:32;;;;;;;3.77;2.20;;;19.00;99.90;;;;;;5014209;28;21031;-73
2022/08/09 01:10:27;;;;;;;3.70;2.57;;;19.00;99.90;;;;;;5014175;28;20419;-73
2022/08/09 01:13:06;;;;;;;3.13;2.83;;;19.00;99.90;;;;;;5014598;28;20443;-74
2022/08/09 01:15:39;;;;;;;2.53;2.33;;;19.00;99.90;;;;;;5013440;28;20451;-73
2022/08/09 01:18:09;;;;;;;3.60;2.50;;;19.00;99.90;;;;;;5013822;28;20483;-73
2022/08/09 01:20:53;;;;;;;2.53;2.10;;;18.90;99.90;;;;;;5014252;28;20392;-73
2022/08/09 01:23:37;;;;;;;3.47;2.70;;;19.00;99.90;;;;;;5014103;28;20431;-73
2022/08/09 01:26:35;;;;;;;2.47;2.27;;;18.90;99.90;;;;;;5013667;28;20392;-73
2022/08/09 01:29:03;;;;;;;3.00;2.70;;;18.90;99.90;;;;;;5008525;28;20427;-73
2022/08/09 01:31:30;;;;;;;2.10;2.00;;;18.90;99.90;;;;;;4995295;28;20408;-74
2022/08/09 01:33:58;;;;;;;2.60;2.40;;;18.90;99.90;;;;;;5012628;28;20789;-73
2022/08/09 01:36:26;;;;;;;2.43;2.23;;;18.90;99.90;;;;;;5013615;28;21084;-73
2022/08/09 01:38:53;;;;;;;3.13;2.83;;;18.90;99.90;;;;;;5013597;28;20451;-74
2022/08/09 01:41:29;;;;;;;2.50;2.30;;;18.90;99.90;;;;;;5013681;28;20416;-73
2022/08/09 01:44:00;;;;;;;3.67;2.57;;;18.90;99.90;;;;;;5013757;28;20521;-74
2022/08/09 01:46:41;;;;;;;2.87;2.10;;;18.80;99.90;;;;;;5013631;28;20416;-73
2022/08/09 01:49:08;;;;;;;4.17;2.63;;;18.80;99.90;;;;;;5013489;28;20444;-73
2022/08/09 01:51:36;;;;;;;4.20;2.40;;;18.80;99.90;;;;;;4995755;28;20469;-73
2022/08/09 01:54:04;;;;;;;4.10;2.10;;;18.80;99.90;;;;;;5013552;28;20510;-73
2022/08/09 01:56:32;;;;;;;8.43;2.40;;;18.70;99.90;;;;;;5013019;28;20408;-74
2022/08/09 01:59:02;;;;;;;3.07;2.67;;;18.70;99.90;;;;;;5013117;28;20505;-74
2022/08/09 02:01:30;;;;;;;2.17;1.80;;;18.70;99.90;;;;;;5013299;28;20407;-74
2022/08/09 02:03:58;;;;;;;3.00;2.70;;;18.70;99.90;;;;;;5014479;28;20453;-73
2022/08/09 02:09:12;;;;;;;3.30;2.67;;;18.70;99.90;;;;;;5013750;28;20395;-73
2022/08/09 02:11:38;;;;;;;2.80;2.20;;;18.70;99.90;;;;;;5013098;28;20404;-73
2022/08/09 02:14:05;;;;;;;2.93;2.20;;;18.70;99.90;;;;;;5012742;28;20454;-73
2022/08/09 02:16:34;;;;;;;4.73;2.57;;;18.70;99.90;;;;;;5012465;28;20417;-73
2022/08/09 02:19:00;;;;;;;2.47;2.10;;;18.70;99.90;;;;;;5012576;28;20462;-73
2022/08/09 02:21:31;;;;;;;5.73;3.00;;;18.70;99.90;;;;;;5012947;28;20413;-74
2022/08/09 02:23:59;;;;;;;2.87;2.67;;;18.70;99.90;;;;;;5013071;28;20456;-73
2022/08/09 02:26:28;;;;;;;5.93;2.80;;;18.70;99.90;;;;;;4994913;28;20924;-72
2022/08/09 02:28:58;;;;;;;2.53;2.33;;;18.70;99.90;;;;;;5013062;28;20469;-73
2022/08/09 02:31:31;;;;;;;3.80;2.50;;;18.70;99.90;;;;;;5012662;28;20401;-73
2022/08/09 02:34:00;;;;;;;4.20;2.87;;;18.70;99.90;;;;;;5012627;28;20431;-74
2022/08/09 02:36:36;;;;;;;2.90;2.30;;;18.60;99.90;;;;;;5012418;28;20433;-73
2022/08/09 02:39:05;;;;;;;3.43;2.70;;;18.60;99.90;;;;;;5012708;28;20501;-73
2022/08/09 02:41:34;;;;;;;4.20;2.60;;;18.60;99.90;;;;;;5012712;28;20461;-73
2022/08/09 02:44:04;;;;;;;2.70;2.40;;;18.60;99.90;;;;;;5012703;28;20619;-73
2022/08/09 02:46:32;;;;;;;3.30;2.87;;;18.50;99.90;;;;;;5012551;28;20441;-73
2022/08/09 02:49:01;;;;;;;2.67;2.47;;;18.60;99.90;;;;;;5012692;28;20435;-74
2022/08/09 02:51:28;;;;;;;2.83;2.53;;;18.60;99.90;;;;;;5013221;28;20465;-74
2022/08/09 02:53:57;;;;;;;3.03;2.73;;;18.60;99.90;;;;;;5013613;28;20825;-72
2022/08/09 02:56:25;;;;;;;3.57;3.03;;;18.60;99.90;;;;;;5014111;28;20446;-73
2022/08/09 02:58:51;;;;;;;3.00;2.23;;;18.60;99.90;;;;;;5014482;28;20462;-72
2022/08/09 03:01:18;;;;;;;3.13;2.63;;;18.60;99.90;;;;;;5014665;28;20443;-73
2022/08/09 03:03:45;;;;;;;3.37;3.00;;;18.60;99.90;;;;;;5012865;28;20447;-73
2022/08/09 03:06:13;;;;;;;2.20;2.00;;;18.60;99.90;;;;;;5011815;28;20403;-73
2022/08/09 03:08:47;;;;;;;2.53;2.33;;;18.60;99.90;;;;;;5012008;28;20417;-73
2022/08/09 03:11:16;;;;;;;3.40;2.63;;;18.60;99.90;;;;;;5011900;28;20910;-73
2022/08/09 03:13:44;;;;;;;2.90;2.43;;;18.60;99.90;;;;;;4994168;28;21265;-73
2022/08/09 03:16:11;;;;;;;2.67;2.37;;;18.60;99.90;;;;;;5011756;28;20774;-73
2022/08/09 03:18:37;;;;;;;5.30;3.00;;;18.60;99.90;;;;;;5011885;28;20474;-73
2022/08/09 03:21:05;;;;;;;3.10;2.80;;;18.50;99.90;;;;;;5011947;28;20803;-73
2022/08/09 03:23:31;;;;;;;2.67;2.47;;;18.50;99.90;;;;;;5011798;28;20420;-73
2022/08/09 03:25:58;;;;;;;3.40;2.40;;;18.50;99.90;;;;;;5011418;28;20829;-74
2022/08/09 03:28:25;;;;;;;2.53;2.33;;;18.50;99.90;;;;;;5011889;28;20546;-74
2022/08/09 03:30:53;;;;;;;2.70;2.17;;;18.50;99.90;;;;;;5011889;28;20838;-74
2022/08/09 03:33:20;;;;;;;3.37;3.07;;;18.50;99.90;;;;;;5011723;28;20474;-75
2022/08/09 03:35:47;;;;;;;4.07;2.80;;;18.40;99.90;;;;;;5011228;28;20494;-75
2022/08/09 03:38:13;;;;;;;3.30;2.60;;;18.40;99.90;;;;;;5011700;28;20525;-74
2022/08/09 03:40:39;;;;;;;3.90;2.90;;;18.40;99.90;;;;;;5011650;28;20399;-73
2022/08/09 03:43:04;;;;;;;3.40;2.80;;;18.40;99.90;;;;;;5015664;28;20187;-74
2022/08/09 03:45:30;;;;;;;4.47;2.30;;;18.50;99.90;;;;;;5015234;28;20165;-74
2022/08/09 03:47:55;;;;;;;3.17;2.17;;;18.50;99.90;;;;;;5016130;28;20170;-74
2022/08/09 03:50:23;;;;;;;2.43;2.23;;;18.50;99.90;;;;;;5016237;28;20275;-74
2022/08/09 03:52:49;;;;;;;2.90;2.60;;;18.50;99.90;;;;;;5019261;28;20224;-73
2022/08/09 03:55:16;;;;;;;3.83;2.60;;;18.40;99.90;;;;;;5017613;28;20412;-73
2022/08/09 03:57:42;;;;;;;5.67;2.47;;;18.50;99.90;;;;;;5015817;28;20169;-73
2022/08/09 04:00:08;;;;;;;3.70;3.07;;;18.40;99.90;;;;;;5015653;28;20533;-73
2022/08/09 04:02:34;;;;;;;4.17;3.77;;;18.40;99.90;;;;;;5015480;28;20166;-73
2022/08/09 04:05:02;;;;;;;3.00;2.70;;;18.50;99.90;;;;;;5015178;28;20928;-74
2022/08/09 04:07:29;;;;;;;4.33;2.67;;;18.40;99.90;;;;;;5015530;28;20955;-74
2022/08/09 04:09:54;;;;;;;4.00;2.70;;;18.40;99.90;;;;;;5015314;28;20522;-74
2022/08/09 04:12:34;;;;;;;4.20;2.77;;;18.40;99.90;;;;;;5015386;28;20431;-74
2022/08/09 04:15:00;;;;;;;3.80;3.50;;;18.40;99.90;;;;;;5015168;28;20569;-74
2022/08/09 04:17:26;;;;;;;3.63;3.13;;;18.40;99.90;;;;;;5015688;28;20411;-73
2022/08/09 04:19:51;;;;;;;2.63;2.37;;;18.40;99.90;;;;;;5015379;28;20193;-73
2022/08/09 04:22:17;;;;;;;3.63;3.27;;;18.40;99.90;;;;;;5015318;28;20169;-73
2022/08/09 04:24:43;;;;;;;2.97;2.70;;;18.40;99.90;;;;;;5015050;28;20203;-73
2022/08/09 04:27:08;;;;;;;2.60;2.40;;;18.40;99.90;;;;;;5015290;28;20407;-74
2022/08/09 04:29:34;;;;;;;3.20;2.83;;;18.40;99.90;;;;;;5015384;28;20173;-74
2022/08/09 04:31:59;;;;;;;3.30;3.00;;;18.40;99.90;;;;;;5015288;28;20171;-74
2022/08/09 04:34:25;;;;;;;3.90;2.37;;;18.40;99.90;;;;;;5014898;28;20581;-74
2022/08/09 04:36:50;;;;;;;5.23;3.37;;;18.40;99.90;;;;;;5014981;28;20167;-74
2022/08/09 04:39:16;;;;;;;5.53;5.10;;;18.40;99.90;;;;;;5014745;28;20218;-73
2022/08/09 04:41:41;;;;;;;3.40;3.10;;;18.40;99.90;;;;;;5014898;28;20260;-73
2022/08/09 04:44:10;;;;;;;3.50;3.20;;;18.50;99.90;;;;;;5014719;28;20184;-74
2022/08/09 04:46:38;;;;;;;14.33;3.63;;;18.40;99.90;;;;;;5014620;28;20177;-73
2022/08/09 04:49:03;;;;;;;4.57;2.93;;;18.50;99.90;;;;;;5014774;28;20499;-74
2022/08/09 04:51:29;;;;;;;4.43;2.80;;;18.40;99.90;;;;;;4997147;28;20407;-74
2022/08/09 04:53:54;;;;;;;11.33;4.53;;;18.40;99.90;;;;;;5013892;28;20183;-74
2022/08/09 04:56:20;;;;;;;3.80;2.40;;;18.40;99.90;;;;;;5014387;28;20171;-73
2022/08/09 04:58:45;;;;;;;4.20;2.87;;;18.40;99.90;;;;;;5014691;28;20257;-73
2022/08/09 05:01:11;;;;;;;3.50;3.20;;;18.50;99.90;;;;;;5014892;28;20168;-73
2022/08/09 05:03:36;;;;;;;5.23;3.17;;;18.50;99.90;;;;;;5043870;22;20210;-65
2022/08/09 05:06:02;;;;;;;3.53;3.10;;;18.40;99.90;;;;;;5030839;28;20688;-66
2022/08/09 05:08:27;;;;;;;3.07;2.60;;;18.50;99.90;;;;;;5034087;28;20175;-66
2022/08/09 05:10:53;;;;;;;3.77;2.80;;;18.50;99.90;;;;;;5033949;28;20588;-66
2022/08/09 05:13:18;;;;;;;3.53;3.23;;;18.50;99.90;;;;;;5033843;28;20223;-66
2022/08/09 05:15:44;;;;;;;3.63;3.33;;;18.50;99.90;;;;;;5033559;28;20202;-66
2022/08/09 05:18:09;;;;;;;3.20;2.57;;;18.50;99.90;;;;;;5034007;28;20198;-68
2022/08/09 05:20:35;;;;;;;5.73;3.50;;;18.50;99.90;;;;;;5033581;28;20177;-65
2022/08/09 05:23:00;;;;;;;4.83;3.60;;;18.60;99.90;;;;;;5033668;28;20164;-65
2022/08/09 05:25:26;;;;;;;2.80;2.60;;;18.70;99.90;;;;;;5033326;28;20184;-66
2022/08/09 05:27:52;;;;;;;3.50;3.20;;;18.80;99.90;;;;;;5033839;28;20194;-66
2022/08/09 05:30:18;;;;;;;3.83;3.33;;;18.70;99.90;;;;;;5033810;28;20225;-66
2022/08/09 05:32:44;;;;;;;2.60;2.40;;;18.70;99.90;;;;;;5033737;28;20183;-65
2022/08/09 05:35:10;;;;;;;4.03;2.80;;;18.80;99.90;;;;;;5033170;28;20974;-65
2022/08/09 05:37:36;;;;;;;3.53;3.17;;;18.90;99.90;;;;;;5033495;28;20504;-67
2022/08/09 05:40:03;;;;;;;2.73;2.53;;;18.90;99.90;;;;;;5033569;28;20607;-67
2022/08/09 05:42:29;;;;;;;5.40;3.50;;;18.90;99.90;;;;;;5028578;28;20456;-65
2022/08/09 05:44:55;;;;;;;3.23;2.93;;;19.00;99.90;;;;;;5031331;28;20432;-65
2022/08/09 05:47:23;;;;;;;10.70;4.67;;;19.00;99.90;;;;;;5039057;28;20176;-66
2022/08/09 05:49:50;;;;;;;3.80;3.17;;;19.00;99.90;;;;;;5033108;28;20175;-66
2022/08/09 05:52:15;;;;;;;3.70;3.07;;;19.00;99.90;;;;;;5032658;28;20944;-65
2022/08/09 05:54:41;;;;;;;3.40;3.10;;;19.10;99.90;;;;;;5032909;28;20737;-66
2022/08/09 05:57:07;;;;;;;4.80;3.20;;;19.30;99.90;;;;;;5032884;28;20168;-65
2022/08/09 05:59:32;;;;;;;5.60;2.93;;;19.30;99.90;;;;;;5028579;28;20667;-65
2022/08/09 06:01:58;;;;;;;2.80;2.10;;;19.40;99.90;;;;;;5013138;28;20240;-66
2022/08/09 06:04:23;;;;;;;3.63;3.30;;;19.50;99.90;;;;;;5012010;28;20208;-65
2022/08/09 06:06:49;;;;;;;4.87;3.10;;;19.50;99.90;;;;;;5012390;28;20168;-66
2022/08/09 06:09:14;;;;;;;3.10;2.80;;;19.60;99.90;;;;;;5013290;28;20697;-65
2022/08/09 06:11:40;;;;;;;3.53;3.23;;;19.70;99.90;;;;;;5013117;28;20222;-65
2022/08/09 06:14:06;;;;;;;4.20;3.10;;;19.70;99.90;;;;;;5013036;28;20194;-66
2022/08/09 06:16:31;;;;;;;4.50;3.70;;;19.90;99.90;;;;;;5017332;28;20182;-65
2022/08/09 06:18:57;;;;;;;3.60;2.87;;;20.00;99.90;;;;;;5030989;28;20196;-65
2022/08/09 06:21:23;;;;;;;3.53;3.23;;;20.30;99.90;;;;;;5032472;28;20160;-65
2022/08/09 06:23:48;;;;;;;6.07;3.40;;;20.60;99.90;;;;;;5032536;28;20566;-64
2022/08/09 06:26:15;;;;;;;3.03;2.73;;;20.80;99.90;;;;;;5032173;28;20176;-66
2022/08/09 06:28:41;;;;;;;3.50;2.73;;;21.20;99.90;;;;;;5033028;28;20540;-66
2022/08/09 06:31:06;;;;;;;2.63;2.27;;;21.30;99.90;;;;;;5032564;28;20410;-66
2022/08/09 06:33:32;;;;;;;2.87;2.67;;;21.60;99.90;;;;;;5032226;28;20242;-66
2022/08/09 06:35:57;;;;;;;6.30;2.20;;;21.60;99.90;;;;;;5031907;28;20202;-66
2022/08/09 06:38:23;;;;;;;3.80;3.17;;;21.40;99.90;;;;;;5032419;28;20594;-63
2022/08/09 06:40:48;;;;;;;2.70;2.50;;;21.60;99.90;;;;;;5032554;28;20167;-66
2022/08/09 06:43:14;;;;;;;3.83;2.50;;;21.50;99.90;;;;;;5032650;28;20168;-66
2022/08/09 06:45:39;;;;;;;4.60;2.67;;;21.50;99.90;;;;;;5031678;28;20195;-66
2022/08/09 06:48:05;;;;;;;3.67;2.33;;;21.60;99.90;;;;;;5032135;28;20178;-65
2022/08/09 06:50:31;;;;;;;3.50;2.87;;;21.70;99.90;;;;;;5031888;28;20178;-65
2022/08/09 06:52:57;;;;;;;3.00;2.50;;;22.00;99.90;;;;;;5031932;28;20169;-65
2022/08/09 06:55:27;;;;;;;3.93;2.90;;;22.30;99.90;;;;;;5031805;28;20419;-64
2022/08/09 06:57:52;;;;;;;4.47;2.63;;;23.00;99.40;;;;;;5031811;28;20405;-64
2022/08/09 07:00:18;;;;;;;2.50;2.20;;;23.10;98.80;;;;;;5031934;28;20457;-64
2022/08/09 07:02:44;;;;;;;3.60;2.17;;;23.10;97.80;;;;;;5031833;28;20176;-65
2022/08/09 07:05:10;;;;;;;3.60;2.70;;;23.00;97.90;;;;;;5031317;28;20684;-67
2022/08/09 07:07:35;;;;;;;3.63;2.50;;;23.40;97.00;;;;;;5032001;28;20409;-65
2022/08/09 07:10:01;;;;;;;2.20;2.00;;;24.00;96.30;;;;;;5032060;28;20190;-65
2022/08/09 07:12:26;;;;;;;2.60;2.20;;;24.00;95.40;;;;;;5031685;28;20186;-65
2022/08/09 07:14:52;;;;;;;2.50;2.23;;;23.90;94.90;;;;;;5031328;28;20289;-65
2022/08/09 07:17:18;;;;;;;2.23;2.03;;;23.50;94.70;;;;;;5031683;28;20206;-65
2022/08/09 07:19:44;;;;;;;2.53;2.00;;;24.10;94.50;;;;;;5049650;28;20283;-65
2022/08/09 07:22:10;;;;;;;2.10;1.90;;;24.40;93.40;;;;;;5042606;28;20439;-65
2022/08/09 07:24:35;;;;;;;2.30;2.10;;;24.70;92.40;;;;;;5031480;28;20187;-65
2022/08/09 07:27:01;;;;;;;2.27;2.07;;;25.20;91.40;;;;;;5013880;28;20174;-65
2022/08/09 07:29:27;;;;;;;4.40;2.87;;;25.20;90.60;;;;;;5031588;28;20254;-65
2022/08/09 07:31:53;;;;;;;4.30;2.53;;;25.20;90.70;;;;;;5032031;28;20181;-65
2022/08/09 07:34:19;;;;;;;5.83;2.53;;;24.70;91.00;;;;;;5031122;28;20854;-65
2022/08/09 07:36:45;;;;;;;4.50;4.13;;;24.60;91.00;;;;;;5031471;28;20508;-65
2022/08/09 07:39:11;;;;;;;2.03;1.60;;;24.80;90.80;;;;;;5031416;28;20645;-65
2022/08/09 07:41:38;;;;;;;2.50;1.80;;;24.90;90.40;;;;;;5031396;28;20168;-68
2022/08/09 07:44:03;;;;;;;1.80;1.67;;;25.80;88.60;;;;;;5031544;28;20472;-70
2022/08/09 07:46:29;;;;;;;2.20;1.77;;;25.90;86.10;;;;;;5030968;28;20414;-69
2022/08/09 07:48:55;;;;;;;2.30;1.93;;;26.40;84.40;;;;;;5031316;28;20175;-64
2022/08/09 07:51:20;;;;;;;2.30;1.60;;;26.70;82.20;;;;;;5032996;28;20171;-64
2022/08/09 07:53:48;;;;;;;1.90;1.73;;;26.00;83.60;;;;;;5051189;28;20198;-64
2022/08/09 07:56:13;;;;;;;5.80;2.20;;;25.60;83.40;;;;;;5040105;28;20176;-64
2022/08/09 07:58:39;;;;;;;2.23;2.03;;;26.00;83.80;;;;;;5030814;28;20827;-63
2022/08/09 08:01:05;;;;;;;2.17;1.30;;;26.10;82.50;;;;;;5024673;28;20183;-64
2022/08/09 08:03:30;;;;;;;5.50;2.10;;;26.70;80.60;;;;;;5030866;28;20170;-64
2022/08/09 08:05:56;;;;;;;2.43;2.20;;;25.80;80.30;;;;;;5030468;28;20207;-64
2022/08/09 08:08:23;;;;;;;2.17;1.97;;;25.40;82.30;;;;;;5030810;28;20175;-64
2022/08/09 08:10:49;;;;;;;2.13;1.93;;;25.20;83.60;;;;;;5031188;28;20274;-63
2022/08/09 08:13:14;;;;;;;3.10;2.00;;;26.10;80.70;;;;;;5030946;28;20402;-64
2022/08/09 08:15:40;;;;;;;2.00;1.80;;;25.40;82.20;;;;;;5030472;28;20433;-64
2022/08/09 08:18:05;;;;;;;4.37;2.00;;;25.70;81.40;;;;;;5030801;28;20630;-64
2022/08/09 08:20:31;;;;;;;2.13;1.83;;;26.80;79.10;;;;;;5030843;28;20175;-64
2022/08/09 08:22:58;;;;;;;1.70;1.60;;;27.00;76.80;;;;;;5031049;28;20163;-65
2022/08/09 08:25:24;;;;;;;2.83;1.97;;;26.50;77.50;;;;;;5030711;28;20278;-64
2022/08/09 08:27:49;;;;;;;1.50;1.40;;;27.20;74.70;;;;;;5031236;28;20965;-65
2022/08/09 08:30:17;;;;;;;2.83;2.10;;;27.10;75.00;;;;;;5034042;28;20552;-64
2022/08/09 08:32:43;;;;;;;2.03;1.80;;;26.50;76.70;;;;;;5034473;28;20160;-64
2022/08/09 08:35:09;;;;;;;5.67;1.90;;;25.60;78.40;;;;;;5033947;28;20459;-63
2022/08/09 08:37:34;;;;;;;2.07;1.90;;;26.20;77.80;;;;;;5034432;28;20402;-65
2022/08/09 08:40:01;;;;;;;3.00;2.07;;;27.60;74.60;;;;;;5034816;28;20210;-64
2022/08/09 08:42:28;;;;;;;2.33;1.93;;;27.70;73.80;;;;;;5034283;28;20191;-64
2022/08/09 08:44:57;;;;;;;3.57;2.17;;;27.50;73.10;;;;;;5033533;28;21009;-64
2022/08/09 08:47:25;;;;;;;1.73;1.63;;;27.20;72.60;;;;;;5034202;28;20401;-64
2022/08/09 08:49:51;;;;;;;2.20;2.00;;;26.30;73.10;;;;;;5033876;28;20417;-64
2022/08/09 08:52:19;;;;;;;2.33;2.00;;;25.60;76.30;;;;;;5033995;28;20816;-65
2022/08/09 08:54:45;;;;;;;2.47;1.70;;;25.90;74.90;;;;;;5033758;28;20433;-64
2022/08/09 08:57:10;;;;;;;2.90;1.70;;;25.60;75.40;;;;;;5033972;28;20406;-64
2022/08/09 08:59:36;;;;;;;2.10;1.90;;;26.10;72.70;;;;;;5033701;28;20510;-64
2022/08/09 09:02:03;;;;;;;2.70;1.43;;;26.10;72.80;;;;;;5033972;28;20592;-64
2022/08/09 09:04:31;;;;;;;2.20;1.77;;;26.20;72.80;;;;;;5033293;28;20211;-63
2022/08/09 09:07:02;;;;;;;1.83;1.70;;;27.10;69.80;;;;;;5033790;28;20406;-64
2022/08/09 09:09:29;;;;;;;2.13;1.93;;;27.00;70.00;;;;;;5033811;28;20436;-64
2022/08/09 09:11:57;;;;;;;2.83;1.60;;;26.90;70.70;;;;;;5033683;28;20634;-64
2022/08/09 09:14:25;;;;;;;1.63;1.53;;;27.10;70.00;;;;;;5033284;28;20525;-64
2022/08/09 09:16:51;;;;;;;1.80;1.40;;;27.10;69.40;;;;;;5033409;28;20410;-63
2022/08/09 09:19:17;;;;;;;1.97;1.40;;;27.80;67.10;;;;;;5033439;28;20837;-65
2022/08/09 09:22:05;;;;;;;3.60;1.77;;;28.30;64.20;;;;;;5033819;28;20399;-65
2022/08/09 09:24:36;;;;;;;5.57;2.00;;;28.70;64.40;;;;;;5032945;28;20223;-63
2022/08/09 09:27:03;;;;;;;3.80;1.53;;;28.40;64.00;;;;;;5033361;28;20406;-64
2022/08/09 09:29:34;;;;;;;1.70;1.60;;;28.30;63.40;;;;;;5033286;28;20498;-64
2022/08/09 09:32:00;;;;;;;2.27;1.97;;;27.70;65.70;;;;;;5033475;28;20410;-64
2022/08/09 09:34:26;;;;;;;1.90;1.80;;;28.30;64.00;;;;;;5032970;28;20472;-64
2022/08/09 09:36:52;;;;;;;3.73;1.50;;;28.60;63.60;;;;;;5033590;28;20418;-64
2022/08/09 09:39:18;;;;;;;3.53;1.80;;;28.50;62.70;;;;;;5015158;28;20975;-65
2022/08/09 09:41:44;;;;;;;2.40;1.40;;;27.50;63.90;;;;;;5033259;28;20409;-64
2022/08/09 09:44:10;;;;;;;2.40;2.13;;;27.80;65.30;;;;;;5033035;28;20194;-64
2022/08/09 09:46:37;;;;;;;1.30;1.20;;;27.60;64.00;;;;;;5032965;28;20422;-64
2022/08/09 09:49:11;;;;;;;1.73;1.63;;;27.30;63.50;;;;;;5033190;28;20206;-64
2022/08/09 09:51:38;;;;;;;1.83;1.73;;;27.80;65.60;;;;;;5032929;28;20441;-65
2022/08/09 09:54:10;;;;;;;2.03;1.93;;;28.30;62.80;;;;;;5033119;28;20942;-64
2022/08/09 09:56:39;;;;;;;2.13;1.70;;;28.10;62.20;;;;;;5032975;28;20480;-64
2022/08/09 09:59:05;;;;;;;1.97;1.70;;;27.70;63.10;;;;;;5032874;28;20512;-64
2022/08/09 10:01:30;;;;;;;2.10;1.90;;;28.00;62.10;;;;;;5033067;28;20407;-65
2022/08/09 10:03:56;;;;;;;2.80;1.73;;;28.00;61.80;;;;;;5032433;28;20203;-63
2022/08/09 10:06:23;;;;;;;2.70;1.40;;;27.80;62.90;;;;;;5032316;28;20225;-64
2022/08/09 10:08:49;;;;;;;4.63;2.00;;;27.60;63.20;;;;;;5032697;28;20830;-64
2022/08/09 10:11:27;;;;;;;4.63;2.10;;;27.50;63.90;;;;;;5032564;28;20433;-64
2022/08/09 10:13:53;;;;;;;2.03;1.70;;;27.60;63.50;;;;;;5032268;28;20935;-63
2022/08/09 10:16:36;;;;;;;1.47;1.37;;;27.70;62.20;;;;;;5032215;28;20417;-65
2022/08/09 10:19:07;;;;;;;1.80;1.60;;;27.10;63.60;;;;;;5031970;28;20467;-64
2022/08/09 10:21:34;;;;;;;3.27;1.60;;;26.80;65.10;;;;;;5032085;28;20408;-64
2022/08/09 10:24:01;;;;;;;4.13;2.00;;;26.30;66.00;;;;;;5032063;28;20979;-64
2022/08/09 10:26:28;;;;;;;2.70;2.10;;;26.50;65.70;;;;;;5031533;28;20532;-65
2022/08/09 10:28:55;;;;;;;1.77;1.63;;;26.30;65.60;;;;;;5032188;28;20475;-64
2022/08/09 10:31:20;;;;;;;4.40;2.30;;;26.50;65.20;;;;;;5032260;28;20419;-64
2022/08/09 10:33:46;;;;;;;2.87;2.50;;;26.70;64.20;;;;;;5032201;28;20428;-64
2022/08/09 10:36:14;;;;;;;2.30;2.00;;;26.30;65.40;;;;;;5031330;28;20171;-64
2022/08/09 10:38:44;;;;;;;2.00;1.90;;;26.40;65.80;;;;;;5031988;28;20210;-64
2022/08/09 10:41:11;;;;;;;2.50;1.83;;;26.30;65.30;;;;;;5031859;28;20927;-64
2022/08/09 10:43:42;;;;;;;1.83;1.70;;;26.40;65.40;;;;;;5031692;28;20487;-64
2022/08/09 10:46:22;;;;;;;1.97;1.80;;;25.90;66.40;;;;;;5031817;28;20430;-64
2022/08/09 10:49:18;;;;;;;2.47;2.27;;;26.00;66.80;;;;;;5032073;28;20446;-64
2022/08/09 10:51:57;;;;;;;3.87;2.00;;;26.60;65.40;;;;;;5026249;28;20426;-65
2022/08/09 10:54:24;;;;;;;3.83;2.33;;;26.60;64.20;;;;;;5031571;28;20482;-64
2022/08/09 10:57:05;;;;;;;3.30;1.97;;;26.50;64.80;;;;;;5031402;28;20513;-64
2022/08/09 10:59:30;;;;;;;2.13;1.57;;;26.60;65.10;;;;;;5031608;28;20475;-64
2022/08/09 11:01:57;;;;;;;2.00;1.90;;;26.50;65.30;;;;;;5031585;28;20999;-66
2022/08/09 11:04:26;;;;;;;1.90;1.80;;;26.80;65.20;;;;;;5048370;22;20203;-71
2022/08/09 11:06:58;;;;;;;2.57;1.80;;;27.00;64.90;;;;;;5009202;28;20489;-77
2022/08/09 11:09:42;;;;;;;2.00;1.87;;;26.80;65.10;;;;;;4999567;28;20439;-74
2022/08/09 11:12:15;;;;;;;2.03;1.83;;;26.10;65.80;;;;;;5013292;28;20406;-73
2022/08/09 11:14:53;;;;;;;3.20;3.00;;;25.90;66.50;;;;;;5012448;28;20478;-75
2022/08/09 11:17:19;;;;;;;2.80;1.67;;;25.80;66.90;;;;;;5012674;28;20485;-73
2022/08/09 11:20:08;;;;;;;1.80;1.70;;;25.80;66.60;;;;;;5012130;28;20929;-74
2022/08/09 11:22:39;;;;;;;4.43;2.20;;;25.70;67.20;;;;;;5012228;28;20173;-74
2022/08/09 11:25:18;;;;;;;2.70;2.03;;;25.50;67.10;;;;;;5011668;28;20430;-74
2022/08/09 11:27:45;;;;;;;2.10;1.90;;;25.60;67.50;;;;;;5012459;28;20396;-74
2022/08/09 11:30:34;;;;;;;3.30;2.20;;;25.40;68.40;;;;;;5012305;28;20472;-74
2022/08/09 11:33:17;;;;;;;5.13;1.80;;;26.00;66.50;;;;;;5012301;28;20490;-75
2022/08/09 11:35:46;;;;;;;2.30;1.90;;;26.40;66.30;;;;;;4994026;28;20442;-75
2022/08/09 11:38:27;;;;;;;4.53;1.80;;;26.70;63.90;;;;;;5011979;28;20407;-74
2022/08/09 11:40:53;;;;;;;1.80;1.67;;;26.90;62.80;;;;;;4994374;28;20429;-75
2022/08/09 11:43:25;;;;;;;2.23;2.03;;;26.80;64.40;;;;;;5011818;28;20422;-75
2022/08/09 11:45:59;;;;;;;1.90;1.80;;;26.40;65.40;;;;;;5011715;28;20836;-75
2022/08/09 11:48:29;;;;;;;2.10;1.90;;;26.30;65.10;;;;;;5011915;28;20438;-75
2022/08/09 11:51:00;;;;;;;2.77;1.87;;;26.20;65.00;;;;;;5011888;28;20909;-75
2022/08/09 11:53:31;;;;;;;2.67;2.40;;;26.20;64.80;;;;;;5012013;28;20410;-74
2022/08/09 11:56:12;;;;;;;1.70;1.60;;;26.50;64.20;;;;;;5011727;28;20454;-74
2022/08/09 11:58:50;;;;;;;2.33;2.13;;;26.50;64.70;;;;;;5012157;28;20568;-75
2022/08/09 12:01:17;;;;;;;2.10;1.90;;;27.00;63.20;;;;;;5012135;28;20417;-75
2022/08/09 12:03:45;;;;;;;2.87;1.93;;;26.80;63.10;;;;;;5014173;28;20416;-75
2022/08/09 12:06:25;;;;;;;2.07;1.87;;;26.40;63.20;;;;;;4995764;28;20443;-75
2022/08/09 12:08:53;;;;;;;2.50;1.67;;;26.30;63.70;;;;;;4996284;28;20411;-75
2022/08/09 12:11:23;;;;;;;2.30;2.10;;;26.30;64.00;;;;;;4995835;28;20425;-74
2022/08/09 12:13:53;;;;;;;2.07;1.97;;;26.20;64.90;;;;;;5004419;28;20491;-75
2022/08/09 12:16:30;;;;;;;2.07;1.97;;;26.20;65.80;;;;;;4997970;28;20426;-74
2022/08/09 12:18:55;;;;;;;1.50;1.40;;;26.00;66.00;;;;;;4985159;28;20547;-74
2022/08/09 12:21:33;;;;;;;2.07;1.87;;;25.80;67.30;;;;;;5015537;28;20977;-74
2022/08/09 12:24:01;;;;;;;1.67;1.57;;;25.90;66.40;;;;;;4998060;28;20532;-74
2022/08/09 12:26:44;;;;;;;2.10;1.90;;;26.40;65.50;;;;;;5014753;28;20430;-75
2022/08/09 12:29:20;;;;;;;2.23;2.03;;;26.30;65.20;;;;;;5015312;28;20473;-74
2022/08/09 12:31:48;;;;;;;2.23;1.90;;;26.30;65.20;;;;;;5015265;28;20433;-75
2022/08/09 12:34:15;;;;;;;3.13;1.93;;;26.20;64.30;;;;;;5014601;28;20522;-75
2022/08/09 12:36:51;;;;;;;8.40;2.23;;;26.50;64.30;;;;;;5014721;28;20476;-75
2022/08/09 12:39:17;;;;;;;2.03;1.83;;;26.80;62.30;;;;;;5014974;28;21022;-75
2022/08/09 12:41:42;;;;;;;4.57;2.13;;;26.90;61.40;;;;;;5015142;28;20415;-74
2022/08/09 12:44:08;;;;;;;2.13;1.93;;;26.90;60.50;;;;;;4996062;28;20665;-75
2022/08/09 12:46:34;;;;;;;2.00;1.80;;;26.80;61.70;;;;;;5009770;28;20615;-74
2022/08/09 12:49:02;;;;;;;3.13;1.77;;;27.20;61.00;;;;;;5014657;28;20409;-75
2022/08/09 12:51:27;;;;;;;3.33;1.67;;;27.10;60.30;;;;;;5014642;28;20188;-76
2022/08/09 12:53:59;;;;;;;1.70;1.60;;;27.40;59.10;;;;;;5014829;28;20426;-75